Terminal Aerodrome Forecast
Issued by NWS

Home | Current Version | Previous Version | Text Only | Print | Product List | Glossary On
Versions: 1 2 3 4 5 6 7 8 9 10 11 12 13 14 15 16
000
FTUS42 KTAE 240524
TAFVLD
TAF
KVLD 240524Z 2406/2506 00000KT P6SM FEW060 SCT250
     FM240900 00000KT 5SM BR SCT006
     FM241300 20006KT P6SM VCSH SCT015
     FM241700 20008KT 6SM -TSRA BKN040CB
     FM242300 16005KT P6SM BKN040=

USA.gov is the U.S. government's official web portal to all federal, state and local government web resources and services.